createdAt,value
2023-08-14T00:02:14.471Z,22.70
2023-08-14T00:04:47.161Z,22.76
2023-08-14T00:07:19.873Z,22.69
2023-08-14T00:09:52.606Z,22.62
2023-08-14T00:12:25.303Z,22.69
2023-08-14T00:14:57.997Z,22.61
2023-08-14T00:17:30.665Z,22.63
2023-08-14T00:20:05.456Z,22.55
2023-08-14T00:22:38.177Z,22.59
2023-08-14T00:25:11.637Z,22.61
2023-08-14T00:27:44.352Z,22.69
2023-08-14T00:30:17.043Z,22.68
2023-08-14T00:32:50.090Z,22.60
2023-08-14T00:35:22.876Z,22.58
2023-08-14T00:37:55.568Z,22.52
2023-08-14T00:40:28.274Z,22.51
2023-08-14T00:43:00.985Z,22.63
2023-08-14T00:45:44.588Z,22.50
2023-08-14T00:48:19.797Z,22.62
2023-08-14T00:50:55.529Z,22.54
2023-08-14T00:53:30.691Z,22.48
2023-08-14T00:56:04.218Z,22.55
2023-08-14T00:58:36.974Z,22.56
2023-08-14T01:01:09.929Z,22.61
2023-08-14T01:03:43.708Z,22.54
2023-08-14T01:06:16.471Z,22.52
2023-08-14T01:08:49.471Z,22.57
2023-08-14T01:12:06.326Z,22.48
2023-08-14T01:15:08.095Z,22.45
2023-08-14T01:17:51.429Z,22.46
2023-08-14T01:20:28.507Z,22.56
2023-08-14T01:23:31.122Z,22.55
2023-08-14T01:26:04.625Z,22.46
2023-08-14T01:28:38.572Z,22.43
2023-08-14T01:31:11.344Z,22.45
2023-08-14T01:33:44.069Z,22.47
2023-08-14T01:36:39.925Z,22.51
2023-08-14T01:39:19.492Z,22.38
2023-08-14T01:45:23.714Z,22.43
2023-08-14T01:48:01.047Z,22.41
2023-08-14T01:50:34.951Z,22.48
2023-08-14T01:53:07.681Z,22.73
2023-08-14T01:55:40.345Z,22.52
2023-08-14T01:58:12.989Z,22.38
2023-08-14T02:00:45.666Z,22.36
2023-08-14T02:03:18.421Z,22.39
2023-08-14T02:05:51.155Z,22.42
2023-08-14T02:08:23.816Z,22.36
2023-08-14T02:10:56.609Z,22.38
2023-08-14T02:19:02.352Z,22.33
2023-08-14T02:21:34.964Z,22.33
2023-08-14T02:24:08.808Z,22.38
2023-08-14T02:26:41.549Z,22.35
2023-08-14T02:29:14.254Z,22.41
2023-08-14T02:31:48.707Z,22.29
2023-08-14T02:34:51.151Z,22.48
2023-08-14T02:37:27.023Z,22.34
2023-08-14T02:39:59.773Z,22.27
2023-08-14T02:42:32.604Z,22.25
2023-08-14T02:45:14.325Z,22.37
2023-08-14T02:47:47.223Z,22.31
2023-08-14T02:50:29.252Z,22.31
2023-08-14T02:53:01.975Z,22.33
2023-08-14T02:55:40.876Z,22.21
2023-08-14T02:58:13.532Z,22.29
2023-08-14T03:00:47.621Z,22.21
2023-08-14T03:03:32.651Z,22.26
2023-08-14T03:06:05.428Z,22.23
2023-08-14T03:08:38.082Z,22.28
2023-08-14T03:11:13.654Z,22.25
2023-08-14T03:13:55.619Z,22.27
2023-08-14T03:16:31.477Z,22.29
2023-08-14T03:19:04.420Z,22.25
2023-08-14T03:21:43.396Z,22.19
2023-08-14T03:24:16.009Z,22.24
2023-08-14T03:26:57.879Z,22.20
2023-08-14T03:29:30.578Z,22.24
2023-08-14T03:32:03.300Z,22.20
2023-08-14T03:34:35.973Z,22.27
2023-08-14T03:37:10.179Z,22.23
2023-08-14T03:39:45.002Z,22.24
2023-08-14T03:42:17.837Z,22.13
2023-08-14T03:44:56.980Z,22.24
2023-08-14T03:47:29.682Z,22.20
2023-08-14T03:50:02.484Z,22.25
2023-08-14T03:52:38.292Z,22.15
2023-08-14T03:55:10.926Z,22.18
2023-08-14T03:57:43.591Z,22.11
2023-08-14T04:00:16.656Z,22.12
2023-08-14T04:02:49.518Z,22.14
2023-08-14T04:05:22.811Z,22.17
2023-08-14T04:07:55.436Z,22.14
2023-08-14T04:10:29.362Z,22.18
2023-08-14T04:13:01.972Z,22.45
2023-08-14T04:15:34.681Z,22.16
2023-08-14T04:18:08.087Z,22.17
2023-08-14T04:20:40.971Z,22.08
2023-08-14T04:23:13.592Z,22.15
2023-08-14T04:25:46.367Z,22.13
2023-08-14T04:28:19.581Z,22.11
2023-08-14T04:30:52.444Z,22.06
2023-08-14T04:33:25.141Z,22.07
2023-08-14T04:35:57.832Z,22.10
2023-08-14T04:41:17.123Z,22.04
2023-08-14T04:43:49.809Z,22.13
2023-08-14T04:46:53.425Z,22.19
2023-08-14T04:49:26.620Z,22.14
2023-08-14T04:51:59.469Z,22.11
2023-08-14T04:54:33.272Z,22.01
2023-08-14T04:57:06.088Z,22.02
2023-08-14T04:59:38.840Z,22.09
2023-08-14T05:02:11.612Z,22.05
2023-08-14T05:04:44.342Z,22.11
2023-08-14T05:07:17.114Z,22.05
2023-08-14T05:09:49.856Z,21.99
2023-08-14T05:12:22.669Z,21.96
2023-08-14T05:14:55.469Z,21.97
2023-08-14T05:17:28.236Z,22.01
2023-08-14T05:20:01.049Z,22.00
2023-08-14T05:22:33.664Z,22.07
2023-08-14T05:25:18.283Z,22.07
2023-08-14T05:27:51.149Z,22.04
2023-08-14T05:30:23.921Z,22.01
2023-08-14T05:32:56.849Z,22.10
2023-08-14T05:35:32.632Z,22.08
2023-08-14T05:38:05.872Z,22.06
2023-08-14T05:40:38.500Z,22.06
2023-08-14T05:43:13.718Z,21.99
2023-08-14T05:45:52.609Z,21.98
2023-08-14T05:48:25.364Z,21.99
2023-08-14T05:50:58.082Z,22.05
2023-08-14T05:53:30.799Z,22.08
2023-08-14T05:56:03.636Z,22.04
2023-08-14T05:58:36.365Z,21.95
2023-08-14T06:01:09.019Z,21.96
2023-08-14T06:03:47.806Z,21.99
2023-08-14T06:06:32.437Z,22.04
2023-08-14T06:09:05.304Z,21.94
2023-08-14T06:11:37.944Z,21.97
2023-08-14T06:14:24.143Z,22.02
2023-08-14T06:16:56.939Z,21.97
2023-08-14T06:19:29.664Z,21.89
2023-08-14T06:22:02.317Z,22.02
2023-08-14T06:24:34.932Z,21.95
2023-08-14T06:27:16.941Z,22.11
2023-08-14T06:29:49.677Z,22.02
2023-08-14T06:32:34.667Z,22.08
2023-08-14T06:35:08.535Z,22.05
2023-08-14T06:37:50.849Z,22.06
2023-08-14T06:40:23.523Z,21.96
2023-08-14T06:43:00.323Z,21.94
2023-08-14T06:45:33.078Z,21.94
2023-08-14T06:48:06.630Z,21.93
2023-08-14T06:50:39.259Z,22.05
2023-08-14T06:53:11.985Z,22.07
2023-08-14T06:55:48.645Z,22.04
2023-08-14T06:58:21.399Z,21.98
2023-08-14T07:00:55.568Z,22.08
2023-08-14T07:03:28.367Z,22.01
2023-08-14T07:06:01.097Z,21.98
2023-08-14T07:08:36.258Z,22.01
2023-08-14T07:11:09.158Z,22.08
2023-08-14T07:13:42.229Z,21.98
2023-08-14T07:16:15.033Z,21.95
2023-08-14T07:18:47.684Z,22.03
2023-08-14T07:21:36.554Z,22.06
2023-08-14T07:24:09.216Z,22.06
2023-08-14T07:26:42.229Z,22.11
2023-08-14T07:29:20.942Z,22.10
2023-08-14T07:31:53.626Z,22.05
2023-08-14T07:34:26.293Z,22.05
2023-08-14T07:37:19.258Z,22.05
2023-08-14T07:39:51.933Z,22.08
2023-08-14T07:42:24.595Z,22.17
2023-08-14T07:44:57.228Z,22.07
2023-08-14T07:47:30.016Z,22.12
2023-08-14T07:50:17.842Z,22.15
2023-08-14T07:53:02.805Z,22.27
2023-08-14T07:55:35.497Z,22.24
2023-08-14T07:58:15.164Z,22.25
2023-08-14T08:00:47.925Z,22.19
2023-08-14T08:03:20.662Z,22.15
2023-08-14T08:05:53.466Z,22.24
2023-08-14T08:08:26.136Z,22.21
2023-08-14T08:11:24.389Z,22.39
2023-08-14T08:13:58.567Z,22.18
2023-08-14T08:16:37.716Z,22.17
2023-08-14T08:19:10.528Z,22.20
2023-08-14T08:21:45.227Z,22.18
2023-08-14T08:24:17.875Z,22.31
2023-08-14T08:26:50.636Z,22.32
2023-08-14T08:29:23.243Z,22.31
2023-08-14T08:32:09.449Z,22.26
2023-08-14T08:34:51.591Z,22.23
2023-08-14T08:37:42.767Z,22.31
2023-08-14T08:40:18.533Z,22.14
2023-08-14T08:43:06.339Z,22.17
2023-08-14T08:46:01.160Z,22.24
2023-08-14T08:49:20.297Z,22.39
2023-08-14T08:52:16.604Z,22.29
2023-08-14T08:55:02.386Z,22.27
2023-08-14T08:57:37.500Z,22.30
2023-08-14T09:00:11.234Z,22.21
2023-08-14T09:02:47.300Z,22.27
2023-08-14T09:05:24.682Z,22.23
2023-08-14T09:08:06.772Z,22.34
2023-08-14T09:10:39.890Z,22.29
2023-08-14T09:13:24.907Z,22.42
2023-08-14T09:16:05.029Z,22.37
2023-08-14T09:18:37.714Z,22.44
2023-08-14T09:21:11.598Z,22.40
2023-08-14T09:23:45.062Z,22.67
2023-08-14T09:26:21.447Z,22.49
2023-08-14T09:28:54.505Z,22.46
2023-08-14T09:31:35.234Z,22.49
2023-08-14T09:34:08.391Z,22.50
2023-08-14T09:36:41.121Z,22.50
2023-08-14T09:39:13.918Z,22.52
2023-08-14T09:41:50.902Z,22.54
2023-08-14T09:44:26.928Z,22.56
2023-08-14T09:47:01.467Z,22.55
2023-08-14T09:49:34.290Z,22.57
2023-08-14T09:52:08.818Z,22.59
2023-08-14T09:54:42.294Z,22.59
2023-08-14T09:57:15.364Z,22.60
2023-08-14T09:59:48.102Z,22.66
2023-08-14T10:02:24.954Z,22.65
2023-08-14T10:04:59.397Z,22.65
2023-08-14T10:07:33.162Z,22.62
2023-08-14T10:10:12.301Z,22.68
2023-08-14T10:12:55.324Z,22.69
2023-08-14T10:15:37.714Z,22.71
2023-08-14T10:18:18.945Z,22.74
2023-08-14T10:20:54.570Z,22.73
2023-08-14T10:23:29.813Z,22.72
2023-08-14T10:26:03.896Z,22.68
2023-08-14T10:28:37.706Z,22.65
2023-08-14T10:31:12.244Z,22.79
2023-08-14T10:33:45.860Z,22.73
2023-08-14T10:36:20.894Z,22.74
2023-08-14T10:41:35.591Z,22.84
2023-08-14T10:44:10.641Z,22.86
2023-08-14T10:46:49.624Z,22.89
2023-08-14T10:49:22.255Z,22.88
2023-08-14T10:52:02.807Z,22.84
2023-08-14T10:54:38.722Z,22.94
2023-08-14T10:57:13.661Z,22.88
2023-08-14T10:59:57.534Z,22.98
2023-08-14T11:02:42.740Z,23.04
2023-08-14T11:05:17.855Z,23.02
2023-08-14T11:08:01.304Z,23.02
2023-08-14T11:10:37.742Z,22.98
2023-08-14T11:13:12.264Z,23.05
2023-08-14T11:15:45.090Z,23.09
2023-08-14T11:18:20.352Z,23.11
2023-08-14T11:20:53.097Z,23.12
2023-08-14T11:23:25.760Z,23.12
2023-08-14T11:25:58.531Z,23.17
2023-08-14T11:28:34.599Z,23.17
2023-08-14T11:31:07.368Z,23.19
2023-08-14T11:33:41.663Z,23.16
2023-08-14T11:36:14.424Z,23.14
2023-08-14T11:38:49.610Z,23.23
2023-08-14T11:43:59.301Z,23.31
2023-08-14T11:46:32.276Z,23.28
2023-08-14T11:49:06.340Z,23.31
2023-08-14T11:51:41.557Z,23.35
2023-08-14T11:54:15.391Z,23.38
2023-08-14T11:56:48.715Z,23.63
2023-08-14T11:59:21.411Z,23.43
2023-08-14T12:01:54.268Z,23.40
2023-08-14T12:04:27.039Z,23.49
2023-08-14T12:06:59.792Z,23.48
2023-08-14T12:09:32.790Z,23.43
2023-08-14T12:12:15.620Z,23.51
2023-08-14T12:14:51.561Z,23.56
2023-08-14T12:17:24.843Z,23.59
2023-08-14T12:20:05.064Z,23.60
2023-08-14T12:22:38.181Z,23.60
2023-08-14T12:25:20.125Z,23.66
2023-08-14T12:27:52.904Z,23.57
2023-08-14T12:30:25.565Z,23.65
2023-08-14T12:32:59.338Z,23.66
2023-08-14T12:35:33.079Z,23.94
2023-08-14T12:38:06.759Z,23.76
2023-08-14T12:40:39.990Z,23.78
2023-08-14T12:43:12.678Z,23.73
2023-08-14T12:45:45.585Z,23.75
2023-08-14T12:48:18.273Z,23.85
2023-08-14T12:50:51.045Z,23.83
2023-08-14T12:53:23.727Z,23.80
2023-08-14T12:56:03.420Z,23.79
2023-08-14T12:58:37.011Z,23.91
2023-08-14T13:01:09.796Z,23.94
2023-08-14T13:03:44.607Z,23.91
2023-08-14T13:06:19.135Z,23.89
2023-08-14T13:09:01.632Z,24.01
2023-08-14T13:11:34.867Z,24.01
2023-08-14T13:14:08.094Z,24.05
2023-08-14T13:16:40.809Z,24.06
2023-08-14T13:19:13.631Z,24.05
2023-08-14T13:21:46.264Z,24.10
2023-08-14T13:24:19.415Z,24.07
2023-08-14T13:26:52.549Z,24.12
2023-08-14T13:31:57.695Z,24.08
2023-08-14T13:34:30.837Z,24.09
2023-08-14T13:37:04.163Z,24.18
2023-08-14T13:39:37.616Z,24.15
2023-08-14T13:42:10.330Z,24.14
2023-08-14T13:45:08.403Z,24.21
2023-08-14T13:47:53.777Z,24.20
2023-08-14T13:50:33.995Z,24.23
2023-08-14T13:53:07.135Z,24.26
2023-08-14T13:55:43.398Z,24.30
2023-08-14T13:58:16.274Z,24.30
2023-08-14T14:00:48.926Z,24.30
2023-08-14T14:03:21.697Z,24.34
2023-08-14T14:05:54.576Z,24.35
2023-08-14T14:08:27.364Z,24.36
2023-08-14T14:11:00.007Z,24.34
2023-08-14T14:13:32.735Z,24.39
2023-08-14T14:16:05.700Z,24.42
2023-08-14T14:18:39.668Z,24.34
2023-08-14T14:21:12.383Z,24.31
2023-08-14T14:23:45.046Z,24.38
2023-08-14T14:26:17.691Z,24.48
2023-08-14T14:28:50.304Z,24.45
2023-08-14T14:31:23.040Z,24.51
2023-08-14T14:34:02.588Z,24.54
2023-08-14T14:36:36.239Z,24.48
2023-08-14T14:39:12.961Z,24.45
2023-08-14T14:41:48.991Z,24.51
2023-08-14T14:44:24.661Z,24.60
2023-08-14T14:46:57.499Z,24.52
2023-08-14T14:49:30.407Z,24.57
2023-08-14T14:52:03.660Z,24.55
2023-08-14T14:55:06.992Z,24.74
2023-08-14T14:57:45.776Z,24.68
2023-08-14T15:00:37.962Z,24.77
2023-08-14T15:03:11.809Z,24.61
2023-08-14T15:05:59.081Z,24.64
2023-08-14T15:08:31.950Z,24.68
2023-08-14T15:11:04.612Z,24.68
2023-08-14T15:13:37.944Z,24.73
2023-08-14T15:16:10.770Z,24.62
2023-08-14T15:18:56.963Z,24.75
2023-08-14T15:21:30.036Z,24.63
2023-08-14T15:24:02.966Z,24.70
2023-08-14T15:26:35.756Z,24.80
2023-08-14T15:29:16.518Z,24.71
2023-08-14T15:31:51.321Z,24.71
2023-08-14T15:34:32.045Z,24.83
2023-08-14T15:37:04.968Z,24.72
2023-08-14T15:39:39.060Z,24.74
2023-08-14T15:42:11.923Z,24.81
2023-08-14T15:44:44.714Z,24.82
2023-08-14T15:47:27.558Z,24.80
2023-08-14T15:50:00.357Z,24.83
2023-08-14T15:52:36.453Z,24.83
2023-08-14T15:55:09.859Z,24.76
2023-08-14T15:57:42.565Z,24.75
2023-08-14T16:00:16.345Z,24.78
2023-08-14T16:02:48.911Z,25.07
2023-08-14T16:05:21.628Z,24.77
2023-08-14T16:07:54.433Z,24.77
2023-08-14T16:10:52.233Z,24.99
2023-08-14T16:13:25.080Z,24.80
2023-08-14T16:16:07.913Z,24.89
2023-08-14T16:18:40.705Z,24.86
2023-08-14T16:21:13.422Z,24.78
2023-08-14T16:23:48.409Z,24.87
2023-08-14T16:26:21.318Z,24.88
2023-08-14T16:28:54.225Z,24.75
2023-08-14T16:31:27.048Z,24.80
2023-08-14T16:34:02.987Z,24.83
2023-08-14T16:36:38.261Z,24.78
2023-08-14T16:39:13.929Z,24.80
2023-08-14T16:41:47.770Z,24.79
2023-08-14T16:44:21.460Z,24.89
2023-08-14T16:46:55.330Z,25.15
2023-08-14T16:49:28.125Z,24.87
2023-08-14T16:52:03.604Z,24.88
2023-08-14T16:54:36.382Z,24.79
2023-08-14T16:57:38.275Z,25.01
2023-08-14T17:00:16.070Z,24.85
2023-08-14T17:02:48.983Z,24.85
2023-08-14T17:05:22.108Z,24.96
2023-08-14T17:07:55.907Z,24.85
2023-08-14T17:10:28.784Z,25.17
2023-08-14T17:13:01.719Z,24.89
2023-08-14T17:15:45.360Z,24.95
2023-08-14T17:18:18.066Z,24.91
2023-08-14T17:20:51.160Z,24.93
2023-08-14T17:23:23.852Z,24.87
2023-08-14T17:25:58.877Z,24.80
2023-08-14T17:28:31.585Z,24.81
2023-08-14T17:31:04.431Z,24.82
2023-08-14T17:33:37.199Z,24.92
2023-08-14T17:36:10.650Z,24.86
2023-08-14T17:38:43.376Z,24.85
2023-08-14T17:41:16.061Z,24.93
2023-08-14T17:43:48.850Z,24.82
2023-08-14T17:46:21.657Z,24.83
2023-08-14T17:48:54.467Z,24.82
2023-08-14T17:51:27.245Z,24.90
2023-08-14T17:53:59.981Z,24.84
2023-08-14T17:56:32.835Z,24.86
2023-08-14T17:59:05.594Z,24.81
2023-08-14T18:01:38.440Z,24.85
2023-08-14T18:04:11.358Z,24.86
2023-08-14T18:06:47.135Z,24.94
2023-08-14T18:09:22.446Z,24.93
2023-08-14T18:11:57.916Z,24.90
2023-08-14T18:14:30.772Z,24.88
2023-08-14T18:17:07.053Z,24.92
2023-08-14T18:20:29.117Z,25.01
2023-08-14T18:23:09.209Z,24.79
2023-08-14T18:26:30.520Z,25.01
2023-08-14T18:29:19.945Z,24.91
2023-08-14T18:31:58.831Z,24.82
2023-08-14T18:34:46.842Z,24.78
2023-08-14T18:37:22.766Z,24.81
2023-08-14T18:39:55.783Z,24.83
2023-08-14T18:42:28.532Z,24.86
2023-08-14T18:45:10.073Z,24.75
2023-08-14T18:47:42.787Z,24.71
2023-08-14T18:50:15.747Z,24.80
2023-08-14T18:52:52.684Z,24.84
2023-08-14T18:55:25.453Z,24.75
2023-08-14T18:57:58.344Z,24.80
2023-08-14T19:00:31.192Z,24.73
2023-08-14T19:03:04.407Z,24.75
2023-08-14T19:05:37.325Z,24.82
2023-08-14T19:08:10.582Z,24.74
2023-08-14T19:10:51.705Z,24.64
2023-08-14T19:13:30.970Z,24.78
2023-08-14T19:16:06.822Z,24.80
2023-08-14T19:18:39.867Z,24.64
2023-08-14T19:21:13.503Z,24.79
2023-08-14T19:23:47.102Z,25.00
2023-08-14T19:26:28.524Z,24.78
2023-08-14T19:29:04.776Z,24.70
2023-08-14T19:31:53.143Z,24.81
2023-08-14T19:34:25.980Z,24.63
2023-08-14T19:37:04.482Z,24.71
2023-08-14T19:39:49.298Z,24.69
2023-08-14T19:42:24.659Z,24.63
2023-08-14T19:44:59.887Z,24.66
2023-08-14T19:47:43.758Z,24.74
2023-08-14T19:50:16.756Z,24.65
2023-08-14T19:52:50.467Z,24.61
2023-08-14T19:55:23.112Z,24.92
2023-08-14T19:58:18.354Z,24.78
2023-08-14T20:00:51.172Z,24.64
2023-08-14T20:03:24.045Z,24.59
2023-08-14T20:05:59.081Z,24.58
2023-08-14T20:08:31.868Z,24.61
2023-08-14T20:11:05.748Z,24.60
2023-08-14T20:13:38.533Z,24.54
2023-08-14T20:16:11.509Z,24.60
2023-08-14T20:18:44.414Z,24.56
2023-08-14T20:21:17.433Z,24.57
2023-08-14T20:23:50.143Z,24.55
2023-08-14T20:26:24.346Z,24.54
2023-08-14T20:28:59.256Z,24.50
2023-08-14T20:31:32.109Z,24.51
2023-08-14T20:34:10.306Z,24.58
2023-08-14T20:36:44.017Z,24.55
2023-08-14T20:39:16.962Z,24.55
2023-08-14T20:41:49.818Z,24.43
2023-08-14T20:44:22.786Z,24.42
2023-08-14T20:46:55.577Z,24.52
2023-08-14T20:49:29.457Z,24.42
2023-08-14T20:52:02.610Z,24.44
2023-08-14T20:55:00.209Z,24.58
2023-08-14T20:57:32.984Z,24.41
2023-08-14T21:00:06.560Z,24.36
2023-08-14T21:05:27.524Z,24.38
2023-08-14T21:08:06.268Z,24.41
2023-08-14T21:10:46.605Z,24.39
2023-08-14T21:13:22.483Z,24.34
2023-08-14T21:16:00.499Z,24.34
2023-08-14T21:18:41.723Z,24.32
2023-08-14T21:21:29.432Z,24.44
2023-08-14T21:24:02.140Z,24.36
2023-08-14T21:29:32.420Z,24.29
2023-08-14T21:32:06.442Z,24.30
2023-08-14T21:34:41.567Z,24.27
2023-08-14T21:37:14.328Z,24.21
2023-08-14T21:39:47.158Z,24.22
2023-08-14T21:42:19.849Z,24.31
2023-08-14T21:44:55.187Z,24.26
2023-08-14T21:47:28.053Z,24.29
2023-08-14T21:50:01.186Z,24.17
2023-08-14T21:52:34.018Z,24.30
2023-08-14T21:55:07.650Z,24.17
2023-08-14T21:57:40.418Z,24.15
2023-08-14T22:00:25.340Z,24.27
2023-08-14T22:02:58.295Z,24.13
2023-08-14T22:05:31.166Z,24.21
2023-08-14T22:08:09.075Z,24.15
2023-08-14T22:10:45.247Z,24.12
2023-08-14T22:13:18.033Z,24.16
2023-08-14T22:15:51.241Z,24.16
2023-08-14T22:18:26.856Z,24.23
2023-08-14T22:21:02.589Z,24.11
2023-08-14T22:24:04.833Z,24.30
2023-08-14T22:26:40.105Z,24.14
2023-08-14T22:29:40.612Z,24.24
2023-08-14T22:32:13.331Z,24.12
2023-08-14T22:34:46.108Z,24.10
2023-08-14T22:37:19.269Z,24.04
2023-08-14T22:39:54.407Z,24.18
2023-08-14T22:42:27.278Z,24.07
2023-08-14T22:45:00.073Z,24.11
2023-08-14T22:47:33.101Z,24.14
2023-08-14T22:50:10.188Z,24.07
2023-08-14T22:52:48.928Z,24.04
2023-08-14T22:55:43.255Z,24.22
2023-08-14T22:58:19.696Z,24.10
2023-08-14T23:00:57.657Z,23.99
2023-08-14T23:03:48.444Z,24.12
2023-08-14T23:06:24.347Z,24.13
2023-08-14T23:08:57.116Z,24.03
2023-08-14T23:11:31.477Z,24.02
2023-08-14T23:14:04.445Z,24.09
2023-08-14T23:16:42.992Z,24.04
2023-08-14T23:19:17.065Z,23.97
2023-08-14T23:21:49.850Z,23.96
2023-08-14T23:24:22.671Z,24.04
2023-08-14T23:26:55.524Z,23.95
2023-08-14T23:29:28.261Z,23.90
2023-08-14T23:32:01.017Z,23.91
2023-08-14T23:34:33.760Z,23.91
2023-08-14T23:37:06.529Z,23.87
2023-08-14T23:39:39.203Z,23.93
2023-08-14T23:42:11.904Z,23.96
2023-08-14T23:45:07.967Z,23.93
2023-08-14T23:47:46.717Z,23.87
2023-08-14T23:50:19.490Z,23.87
2023-08-14T23:52:52.281Z,23.91
2023-08-14T23:55:25.172Z,23.90
2023-08-14T23:57:58.076Z,23.93
